createdAt,value
2016-08-05T00:00:08.545Z,14.4
2016-08-05T00:00:18.546Z,14.3
2016-08-05T00:00:28.547Z,14.4
2016-08-05T00:00:38.545Z,14.4
2016-08-05T00:00:48.547Z,14.3
2016-08-05T00:00:58.545Z,14.4
2016-08-05T00:01:08.545Z,14.3
2016-08-05T00:01:18.550Z,14.3
2016-08-05T00:01:28.545Z,14.3
2016-08-05T00:01:38.552Z,14.3
2016-08-05T00:01:48.547Z,14.3
2016-08-05T00:01:58.547Z,14.3
2016-08-05T00:02:08.550Z,14.3
2016-08-05T00:02:18.547Z,14.3
2016-08-05T00:02:28.546Z,14.3
2016-08-05T00:02:38.555Z,14.3
2016-08-05T00:02:48.547Z,14.3
2016-08-05T00:02:58.551Z,14.4
2016-08-05T00:03:08.553Z,14.3
2016-08-05T00:03:18.548Z,14.3
2016-08-05T00:03:28.549Z,14.3
2016-08-05T00:03:38.550Z,14.2
2016-08-05T00:03:48.551Z,14.2
2016-08-05T00:03:58.550Z,14.3
2016-08-05T00:04:08.551Z,14.2
2016-08-05T00:04:18.550Z,14.2
2016-08-05T00:04:28.552Z,14.3
2016-08-05T00:04:38.551Z,14.2
2016-08-05T00:04:48.553Z,14.2
2016-08-05T00:04:58.550Z,14.2
2016-08-05T00:05:08.553Z,14.2
2016-08-05T00:05:18.553Z,14.2
2016-08-05T00:05:28.553Z,14.2
2016-08-05T00:05:38.551Z,14.3
2016-08-05T00:05:48.551Z,14.2
2016-08-05T00:05:58.552Z,14.2
2016-08-05T00:06:08.554Z,14.2
2016-08-05T00:06:18.554Z,14.2
2016-08-05T00:06:28.553Z,14.3
2016-08-05T00:06:38.554Z,14.2
2016-08-05T00:06:48.554Z,14.2
2016-08-05T00:06:58.554Z,14.2
2016-08-05T00:07:08.554Z,14.2
2016-08-05T00:07:18.553Z,14.2
2016-08-05T00:07:28.555Z,14.3
2016-08-05T00:07:38.555Z,14.2
2016-08-05T00:07:48.557Z,14.3
2016-08-05T00:07:58.556Z,14.2
2016-08-05T00:08:08.554Z,14.2
2016-08-05T00:08:18.558Z,14.2
2016-08-05T00:08:28.557Z,14.2
2016-08-05T00:08:38.557Z,14.2
2016-08-05T00:08:48.557Z,14.2
2016-08-05T00:08:58.554Z,14.3
2016-08-05T00:09:08.557Z,14.2
2016-08-05T00:09:18.557Z,14.3
2016-08-05T00:09:28.556Z,14.2
2016-08-05T00:09:38.556Z,14.2
2016-08-05T00:09:48.559Z,14.2
2016-08-05T00:09:58.557Z,14.3
2016-08-05T00:10:18.558Z,14.2
2016-08-05T00:10:28.556Z,14.3
2016-08-05T00:10:38.560Z,14.2
2016-08-05T00:10:48.559Z,14.2
2016-08-05T00:10:58.560Z,14.3
2016-08-05T00:11:08.560Z,14.2
2016-08-05T00:11:18.560Z,14.2
2016-08-05T00:11:28.562Z,14.2
2016-08-05T00:11:38.560Z,14.2
2016-08-05T00:11:48.558Z,14.2
2016-08-05T00:11:58.561Z,14.2
2016-08-05T00:12:08.560Z,14.2
2016-08-05T00:12:18.561Z,14.2
2016-08-05T00:12:28.561Z,14.2
2016-08-05T00:12:38.561Z,14.2
2016-08-05T00:12:48.561Z,14.2
2016-08-05T00:12:58.563Z,14.2
2016-08-05T00:13:08.560Z,14.2
2016-08-05T00:13:18.563Z,14.2
2016-08-05T00:13:28.560Z,14.3
2016-08-05T00:13:38.560Z,14.2
2016-08-05T00:13:48.565Z,14.2
2016-08-05T00:13:58.562Z,14.2
2016-08-05T00:14:08.563Z,14.2
2016-08-05T00:14:18.565Z,14.2
2016-08-05T00:14:28.563Z,14.2
2016-08-05T00:14:38.564Z,14.1
2016-08-05T00:14:48.573Z,14.1
2016-08-05T00:14:58.564Z,14.2
2016-08-05T00:15:08.564Z,14.1
2016-08-05T00:15:18.564Z,14.2
2016-08-05T00:15:28.569Z,14.1
2016-08-05T00:15:38.566Z,14.3
2016-08-05T00:15:48.564Z,14.2
2016-08-05T00:15:58.566Z,14.1
2016-08-05T00:16:08.568Z,14.2
2016-08-05T00:16:18.564Z,14.1
2016-08-05T00:16:28.567Z,14.1
2016-08-05T00:16:38.566Z,14.3
2016-08-05T00:16:48.568Z,14
2016-08-05T00:16:58.566Z,14.2
2016-08-05T00:17:08.569Z,14.1
2016-08-05T00:17:18.568Z,14
2016-08-05T00:17:28.566Z,14.1
2016-08-05T00:17:38.567Z,14.1
2016-08-05T00:17:48.568Z,14.2
2016-08-05T00:17:58.568Z,14.1
2016-08-05T00:18:08.572Z,14.1
2016-08-05T00:18:18.568Z,14.1
2016-08-05T00:18:28.569Z,14.2
2016-08-05T00:18:38.567Z,14.3
2016-08-05T00:18:48.570Z,14.2
2016-08-05T00:18:58.568Z,14.1
2016-08-05T00:19:08.569Z,14.1
2016-08-05T00:19:18.569Z,14.1
2016-08-05T00:19:28.568Z,14.1
2016-08-05T00:19:38.571Z,14.1
2016-08-05T00:19:58.570Z,14.1
2016-08-05T00:20:08.570Z,14.2
2016-08-05T00:20:18.570Z,14.2
2016-08-05T00:20:28.571Z,14.2
2016-08-05T00:20:38.573Z,14.2
2016-08-05T00:20:48.570Z,14.2
2016-08-05T00:20:58.570Z,14.2
2016-08-05T00:21:08.573Z,14.1
2016-08-05T00:21:18.571Z,14.2
2016-08-05T00:21:28.572Z,14.2
2016-08-05T00:21:38.571Z,14.3
2016-08-05T00:21:48.570Z,14.1
2016-08-05T00:21:58.572Z,14.2
2016-08-05T00:22:08.573Z,14.2
2016-08-05T00:22:18.574Z,14.1
2016-08-05T00:22:28.574Z,14.3
2016-08-05T00:22:38.575Z,14.1
2016-08-05T00:22:48.573Z,14.2
2016-08-05T00:22:58.574Z,14.2
2016-08-05T00:23:08.575Z,14.2
2016-08-05T00:23:18.574Z,14.2
2016-08-05T00:23:28.575Z,14.2
2016-08-05T00:23:38.575Z,14.3
2016-08-05T00:23:48.576Z,14.3
2016-08-05T00:23:58.576Z,14.2
2016-08-05T00:24:08.575Z,14.1
2016-08-05T00:24:18.575Z,14.2
2016-08-05T00:24:28.579Z,14.3
2016-08-05T00:24:38.576Z,14.2
2016-08-05T00:24:48.576Z,14.1
2016-08-05T00:24:58.577Z,14.1
2016-08-05T00:25:08.576Z,14.1
2016-08-05T00:25:28.576Z,14.2
2016-08-05T00:25:38.577Z,14.1
2016-08-05T00:25:48.575Z,14.1
2016-08-05T00:25:58.579Z,14.2
2016-08-05T00:26:08.578Z,14.1
2016-08-05T00:26:18.578Z,14.1
2016-08-05T00:26:28.576Z,14.1
2016-08-05T00:26:38.578Z,14.2
2016-08-05T00:26:48.577Z,14.1
2016-08-05T00:26:58.580Z,14
2016-08-05T00:27:08.581Z,14.1
2016-08-05T00:27:18.580Z,14.1
2016-08-05T00:27:28.580Z,14.1
2016-08-05T00:27:38.579Z,14.2
2016-08-05T00:27:48.579Z,14.1
2016-08-05T00:27:58.579Z,14.2
2016-08-05T00:28:08.579Z,14.1
2016-08-05T00:28:18.581Z,14
2016-08-05T00:28:28.583Z,14
2016-08-05T00:28:38.581Z,14.1
2016-08-05T00:28:48.579Z,14.1
2016-08-05T00:28:58.582Z,14.1
2016-08-05T00:29:08.580Z,14.1
2016-08-05T00:29:18.581Z,14.1
2016-08-05T00:29:28.584Z,14.1
2016-08-05T00:29:38.582Z,14.2
2016-08-05T00:29:48.581Z,14.1
2016-08-05T00:29:58.583Z,14.2
2016-08-05T00:30:08.583Z,14.1
2016-08-05T00:30:18.584Z,14.2
2016-08-05T00:30:28.583Z,14.2
2016-08-05T00:30:38.581Z,14.2
2016-08-05T00:30:48.583Z,14.2
2016-08-05T00:30:58.583Z,14.1
2016-08-05T00:31:08.584Z,14.1
2016-08-05T00:31:18.583Z,14.1
2016-08-05T00:31:28.583Z,14
2016-08-05T00:31:38.583Z,14
2016-08-05T00:31:48.586Z,14.2
2016-08-05T00:31:58.583Z,14.2
2016-08-05T00:32:08.586Z,14.1
2016-08-05T00:32:18.583Z,14.1
2016-08-05T00:32:28.585Z,14.1
2016-08-05T00:32:38.586Z,14.1
2016-08-05T00:32:48.585Z,14.1
2016-08-05T00:32:58.586Z,14
2016-08-05T00:33:08.585Z,14.1
2016-08-05T00:33:18.587Z,14.1
2016-08-05T00:33:28.585Z,14.1
2016-08-05T00:33:38.586Z,14.1
2016-08-05T00:33:48.587Z,14.1
2016-08-05T00:33:58.586Z,14.1
2016-08-05T00:34:08.586Z,14.1
2016-08-05T00:34:18.590Z,14.1
2016-08-05T00:34:28.588Z,14.1
2016-08-05T00:34:38.585Z,14.1
2016-08-05T00:34:48.588Z,14.1
2016-08-05T00:34:58.589Z,14.1
2016-08-05T00:35:08.590Z,14.1
2016-08-05T00:35:18.587Z,14.2
2016-08-05T00:35:28.588Z,14.1
2016-08-05T00:35:38.589Z,14.1
2016-08-05T00:35:48.589Z,14.1
2016-08-05T00:35:58.587Z,14.1
2016-08-05T00:36:08.589Z,14.1
2016-08-05T00:36:18.590Z,14.1
2016-08-05T00:36:28.590Z,14.1
2016-08-05T00:36:38.590Z,14.1
2016-08-05T00:36:48.596Z,14.1
2016-08-05T00:36:58.590Z,14.1
2016-08-05T00:37:08.590Z,14.1
2016-08-05T00:37:18.591Z,14.1
2016-08-05T00:37:28.594Z,14.1
2016-08-05T00:37:38.592Z,14
2016-08-05T00:37:48.592Z,14.1
2016-08-05T00:37:58.592Z,14.1
2016-08-05T00:38:08.595Z,14.1
2016-08-05T00:38:18.592Z,14.1
2016-08-05T00:38:28.591Z,14.2
2016-08-05T00:38:38.593Z,14
2016-08-05T00:38:48.594Z,14
2016-08-05T00:38:58.593Z,14.1
2016-08-05T00:39:08.592Z,14
2016-08-05T00:39:18.593Z,14.1
2016-08-05T00:39:28.594Z,14.1
2016-08-05T00:39:38.594Z,14.1
2016-08-05T00:39:48.593Z,14.1
2016-08-05T00:39:58.594Z,14.1
2016-08-05T00:40:08.596Z,14
2016-08-05T00:40:28.595Z,14
2016-08-05T00:40:38.593Z,14
2016-08-05T00:40:48.595Z,14
2016-08-05T00:40:58.595Z,14.1
2016-08-05T00:41:08.594Z,14
2016-08-05T00:41:18.595Z,14
2016-08-05T00:41:28.593Z,14
2016-08-05T00:41:38.596Z,14
2016-08-05T00:41:48.597Z,13.9
2016-08-05T00:41:58.613Z,13.9
2016-08-05T00:42:08.596Z,14
2016-08-05T00:42:18.599Z,14
2016-08-05T00:42:28.595Z,14.1
2016-08-05T00:42:38.596Z,14.1
2016-08-05T00:42:48.595Z,14
2016-08-05T00:42:58.598Z,14.1
2016-08-05T00:43:08.597Z,14
2016-08-05T00:43:18.598Z,14
2016-08-05T00:43:28.600Z,13.9
2016-08-05T00:43:38.596Z,14
2016-08-05T00:43:48.601Z,14
2016-08-05T00:43:58.598Z,14
2016-08-05T00:44:08.596Z,14
2016-08-05T00:44:18.598Z,14
2016-08-05T00:44:28.599Z,14
2016-08-05T00:44:38.599Z,14
2016-08-05T00:44:48.607Z,14
2016-08-05T00:44:58.600Z,14
2016-08-05T00:45:08.600Z,14
2016-08-05T00:45:18.601Z,14
2016-08-05T00:45:28.602Z,14
2016-08-05T00:45:38.599Z,14.1
2016-08-05T00:45:48.601Z,14
2016-08-05T00:45:58.605Z,13.9
2016-08-05T00:46:08.599Z,14
2016-08-05T00:46:18.602Z,14
2016-08-05T00:46:28.602Z,14
2016-08-05T00:46:38.602Z,14
2016-08-05T00:46:48.602Z,13.9
2016-08-05T00:46:58.602Z,14
2016-08-05T00:47:08.602Z,14
2016-08-05T00:47:18.601Z,14
2016-08-05T00:47:28.602Z,14
2016-08-05T00:47:38.604Z,14
2016-08-05T00:47:48.602Z,14.1
2016-08-05T00:47:58.604Z,14.1
2016-08-05T00:48:08.603Z,14
2016-08-05T00:48:18.603Z,14
2016-08-05T00:48:28.605Z,14
2016-08-05T00:48:38.602Z,14
2016-08-05T00:48:48.604Z,14
2016-08-05T00:48:58.608Z,14
2016-08-05T00:49:08.605Z,14
2016-08-05T00:49:18.607Z,14
2016-08-05T00:49:28.604Z,13.9
2016-08-05T00:49:38.604Z,14
2016-08-05T00:49:48.605Z,14
2016-08-05T00:49:58.604Z,13.9
2016-08-05T00:50:08.606Z,14
2016-08-05T00:50:18.607Z,14.1
2016-08-05T00:50:28.606Z,14
2016-08-05T00:50:38.606Z,14
2016-08-05T00:50:48.603Z,14
2016-08-05T00:50:58.606Z,14
2016-08-05T00:51:08.607Z,14
2016-08-05T00:51:18.606Z,14.1
2016-08-05T00:51:28.608Z,14.1
2016-08-05T00:51:38.613Z,14.1
2016-08-05T00:51:48.608Z,14.1
2016-08-05T00:51:58.606Z,14.1
2016-08-05T00:52:08.608Z,14.1
2016-08-05T00:52:18.608Z,14.1
2016-08-05T00:52:28.608Z,14.1
2016-08-05T00:52:38.606Z,14.1
2016-08-05T00:52:48.608Z,14.1
2016-08-05T00:52:58.609Z,14
2016-08-05T00:53:08.612Z,14.1
2016-08-05T00:53:18.610Z,14.1
2016-08-05T00:53:28.608Z,14.1
2016-08-05T00:53:38.607Z,14.1
2016-08-05T00:53:48.609Z,14.1
2016-08-05T00:53:58.608Z,14.1
2016-08-05T00:54:08.617Z,14.1
2016-08-05T00:54:18.611Z,14.1
2016-08-05T00:54:28.611Z,14.1
2016-08-05T00:54:38.609Z,14.1
2016-08-05T00:54:48.609Z,14.1
2016-08-05T00:54:58.608Z,14.1
2016-08-05T00:55:08.614Z,14.1
2016-08-05T00:55:28.611Z,14.1
2016-08-05T00:55:38.611Z,14.1
2016-08-05T00:55:48.616Z,14
2016-08-05T00:55:58.611Z,14.1
2016-08-05T00:56:08.611Z,14.1
2016-08-05T00:56:18.613Z,14.1
2016-08-05T00:56:28.614Z,14.1
2016-08-05T00:56:38.612Z,14.1
2016-08-05T00:56:48.612Z,14.1
2016-08-05T00:56:58.615Z,14.2
2016-08-05T00:57:08.612Z,14
2016-08-05T00:57:18.614Z,14.1
2016-08-05T00:57:28.615Z,14.1
2016-08-05T00:57:38.616Z,14.1
2016-08-05T00:57:48.614Z,14.1
2016-08-05T00:57:58.612Z,14
2016-08-05T00:58:08.616Z,14
2016-08-05T00:58:18.614Z,14
2016-08-05T00:58:28.622Z,14.1
2016-08-05T00:58:38.615Z,14.2
2016-08-05T00:58:48.616Z,14.1
2016-08-05T00:58:58.617Z,14.1
2016-08-05T00:59:08.618Z,14.1
2016-08-05T00:59:18.614Z,14.1
2016-08-05T00:59:28.616Z,14.1
2016-08-05T00:59:38.618Z,14.1
2016-08-05T00:59:48.617Z,14.1
2016-08-05T00:59:58.615Z,14.1
2016-08-05T01:00:08.616Z,14.1
2016-08-05T01:00:18.618Z,14.1
2016-08-05T01:00:28.616Z,14.1
2016-08-05T01:00:38.615Z,14.2
2016-08-05T01:00:48.618Z,14.2
2016-08-05T01:00:58.620Z,14
2016-08-05T01:01:08.620Z,14.1
2016-08-05T01:01:18.618Z,14.1
2016-08-05T01:01:28.618Z,14.1
2016-08-05T01:01:38.620Z,14.1
2016-08-05T01:01:48.618Z,14.1
2016-08-05T01:01:58.618Z,14.1
2016-08-05T01:02:08.620Z,14.1
2016-08-05T01:02:18.619Z,14.1
2016-08-05T01:02:28.618Z,14.1
2016-08-05T01:02:38.619Z,14.1
2016-08-05T01:02:48.618Z,14.1
2016-08-05T01:02:58.620Z,14.1
2016-08-05T01:03:08.620Z,14.1
2016-08-05T01:03:18.618Z,14.1
2016-08-05T01:03:28.621Z,14.1
2016-08-05T01:03:38.621Z,14.1
2016-08-05T01:03:48.617Z,14.1
2016-08-05T01:03:58.619Z,14
2016-08-05T01:04:08.621Z,14.1
2016-08-05T01:04:18.627Z,14.1
2016-08-05T01:04:28.621Z,14.1
2016-08-05T01:04:38.619Z,14.1
2016-08-05T01:04:48.621Z,14.1
2016-08-05T01:04:58.621Z,14.2
2016-08-05T01:05:08.622Z,14.1
2016-08-05T01:05:18.622Z,14.1
2016-08-05T01:05:28.621Z,14
2016-08-05T01:05:38.622Z,14.1
2016-08-05T01:05:48.624Z,14.1
2016-08-05T01:05:58.621Z,14.2
2016-08-05T01:06:08.622Z,14.1
2016-08-05T01:06:18.623Z,14.1
2016-08-05T01:06:28.621Z,14.1
2016-08-05T01:06:38.624Z,14.1
2016-08-05T01:06:48.624Z,14.1
2016-08-05T01:06:58.624Z,14.1
2016-08-05T01:07:08.622Z,14.1
2016-08-05T01:07:18.624Z,14.2
2016-08-05T01:07:28.624Z,14.1
2016-08-05T01:07:38.623Z,14.2
2016-08-05T01:07:48.624Z,14.1
2016-08-05T01:07:58.625Z,14.1
2016-08-05T01:08:08.624Z,14.1
2016-08-05T01:08:18.626Z,14.1
2016-08-05T01:08:28.624Z,14.2
2016-08-05T01:08:38.625Z,14.1
2016-08-05T01:08:48.624Z,14.1
2016-08-05T01:08:58.627Z,14.1
2016-08-05T01:09:08.624Z,14.1
2016-08-05T01:09:18.626Z,14
2016-08-05T01:09:28.625Z,14.1
2016-08-05T01:09:38.627Z,14.1
2016-08-05T01:09:48.625Z,14.1
2016-08-05T01:09:58.626Z,14.2
2016-08-05T01:10:08.626Z,14.1
2016-08-05T01:10:28.624Z,14.1
2016-08-05T01:10:38.627Z,14.1
2016-08-05T01:10:48.628Z,14.1
2016-08-05T01:10:58.627Z,14.1
2016-08-05T01:11:08.630Z,14.1
2016-08-05T01:11:18.632Z,14.1
2016-08-05T01:11:28.628Z,14.1
2016-08-05T01:11:38.628Z,14.1
2016-08-05T01:11:48.630Z,14.1
2016-08-05T01:11:58.628Z,14.1
2016-08-05T01:12:08.627Z,14.1
2016-08-05T01:12:18.630Z,14.1
2016-08-05T01:12:28.627Z,14.1
2016-08-05T01:12:38.629Z,14.2
2016-08-05T01:12:48.631Z,14.1
2016-08-05T01:12:58.629Z,14.1
2016-08-05T01:13:08.631Z,14.1
2016-08-05T01:13:18.630Z,14.1
2016-08-05T01:13:28.628Z,14.1
2016-08-05T01:13:38.630Z,14.1
2016-08-05T01:13:48.636Z,14.1
2016-08-05T01:13:58.631Z,14.1
2016-08-05T01:14:08.630Z,14.1
2016-08-05T01:14:18.632Z,14.1
2016-08-05T01:14:28.630Z,14.1
2016-08-05T01:14:38.630Z,14.2
2016-08-05T01:14:48.630Z,14.1
2016-08-05T01:14:58.631Z,14.1
2016-08-05T01:15:08.632Z,14.1
2016-08-05T01:15:18.634Z,14.1
2016-08-05T01:15:28.631Z,14
2016-08-05T01:15:38.633Z,14.2
2016-08-05T01:15:48.630Z,14.1
2016-08-05T01:15:58.632Z,14.2
2016-08-05T01:16:08.633Z,14.1
2016-08-05T01:16:18.632Z,14
2016-08-05T01:16:28.634Z,14.1
2016-08-05T01:16:38.635Z,14.1
2016-08-05T01:16:48.634Z,14.2
2016-08-05T01:16:58.635Z,14.1
2016-08-05T01:17:08.633Z,14.1
2016-08-05T01:17:18.636Z,14.1
2016-08-05T01:17:28.636Z,14
2016-08-05T01:17:38.635Z,14.1
2016-08-05T01:17:48.635Z,14.1
2016-08-05T01:17:58.634Z,14.1
2016-08-05T01:18:08.636Z,14.1
2016-08-05T01:18:18.633Z,14.1
2016-08-05T01:18:28.634Z,14.1
2016-08-05T01:18:38.637Z,14.1
2016-08-05T01:18:48.638Z,14
2016-08-05T01:18:58.636Z,14.1
2016-08-05T01:19:08.637Z,14.1
2016-08-05T01:19:18.635Z,14.1
2016-08-05T01:19:28.636Z,14.1
2016-08-05T01:19:38.646Z,14.1
2016-08-05T01:19:48.642Z,14.1
2016-08-05T01:19:58.639Z,14
2016-08-05T01:20:08.636Z,14.1
2016-08-05T01:20:18.638Z,14.1
2016-08-05T01:20:28.637Z,14.1
2016-08-05T01:20:38.637Z,14.1
2016-08-05T01:20:48.638Z,14
2016-08-05T01:20:58.640Z,14.1
2016-08-05T01:21:08.637Z,14
2016-08-05T01:21:18.639Z,14.1
2016-08-05T01:21:28.637Z,14.1
2016-08-05T01:21:38.649Z,14.1
2016-08-05T01:21:48.640Z,14.1
2016-08-05T01:21:58.638Z,14
2016-08-05T01:22:08.640Z,13.9
2016-08-05T01:22:18.639Z,14
2016-08-05T01:22:28.640Z,14
2016-08-05T01:22:38.641Z,14
2016-08-05T01:22:48.639Z,14
2016-08-05T01:22:58.639Z,13.9
2016-08-05T01:23:08.640Z,14
2016-08-05T01:23:18.641Z,13.9
2016-08-05T01:23:28.642Z,14
2016-08-05T01:23:38.639Z,14
2016-08-05T01:23:48.642Z,14
2016-08-05T01:23:58.643Z,14
2016-08-05T01:24:08.641Z,14
2016-08-05T01:24:18.643Z,14
2016-08-05T01:24:28.640Z,13.9
2016-08-05T01:24:38.641Z,13.9
2016-08-05T01:24:48.643Z,14
2016-08-05T01:24:58.644Z,13.9
2016-08-05T01:25:08.644Z,13.9
2016-08-05T01:25:28.641Z,13.9
2016-08-05T01:25:38.643Z,13.9
2016-08-05T01:25:48.643Z,13.9
2016-08-05T01:25:58.643Z,13.9
2016-08-05T01:26:08.644Z,13.9
2016-08-05T01:26:18.642Z,13.9
2016-08-05T01:26:28.643Z,13.9
2016-08-05T01:26:38.643Z,13.9
2016-08-05T01:26:48.645Z,13.9
2016-08-05T01:26:58.645Z,13.9
2016-08-05T01:27:08.648Z,13.9
2016-08-05T01:27:18.647Z,13.9
2016-08-05T01:27:28.645Z,14
2016-08-05T01:27:38.855Z,13.9
2016-08-05T01:27:48.646Z,14
2016-08-05T01:27:58.645Z,13.9
2016-08-05T01:28:08.649Z,14
2016-08-05T01:28:18.646Z,14
2016-08-05T01:28:28.645Z,14
2016-08-05T01:28:38.646Z,13.9
2016-08-05T01:28:48.645Z,14
2016-08-05T01:28:58.648Z,14
2016-08-05T01:29:08.650Z,14
2016-08-05T01:29:18.646Z,13.9
2016-08-05T01:29:28.648Z,13.9
2016-08-05T01:29:38.648Z,14
2016-08-05T01:29:48.646Z,13.9
2016-08-05T01:29:58.647Z,13.9
2016-08-05T01:30:08.647Z,13.9
2016-08-05T01:30:18.649Z,13.9
2016-08-05T01:30:28.650Z,13.9
2016-08-05T01:30:38.650Z,13.9
2016-08-05T01:30:48.647Z,14
2016-08-05T01:30:58.652Z,13.9
2016-08-05T01:31:08.652Z,13.9
2016-08-05T01:31:18.650Z,13.9
2016-08-05T01:31:28.647Z,13.9
2016-08-05T01:31:38.649Z,13.9
2016-08-05T01:31:48.649Z,13.9
2016-08-05T01:31:58.649Z,13.9
2016-08-05T01:32:08.649Z,13.8
2016-08-05T01:32:18.656Z,13.8
2016-08-05T01:32:28.648Z,13.9
2016-08-05T01:32:38.650Z,13.9
2016-08-05T01:32:48.649Z,13.8
2016-08-05T01:32:58.650Z,13.8
2016-08-05T01:33:08.651Z,13.8
2016-08-05T01:33:18.649Z,13.8
2016-08-05T01:33:28.652Z,13.9
2016-08-05T01:33:38.651Z,13.8
2016-08-05T01:33:48.650Z,13.8
2016-08-05T01:33:58.659Z,13.8
2016-08-05T01:34:08.653Z,13.8
2016-08-05T01:34:18.651Z,13.8
2016-08-05T01:34:28.655Z,13.8
2016-08-05T01:34:38.653Z,13.8
2016-08-05T01:34:48.651Z,13.8
2016-08-05T01:34:58.663Z,13.9
2016-08-05T01:35:08.653Z,13.8
2016-08-05T01:35:18.653Z,13.8
2016-08-05T01:35:28.652Z,13.8
2016-08-05T01:35:38.652Z,13.8
2016-08-05T01:35:48.653Z,13.8
2016-08-05T01:35:58.655Z,13.8
2016-08-05T01:36:08.653Z,13.8
2016-08-05T01:36:18.656Z,13.8
2016-08-05T01:36:28.657Z,13.9
2016-08-05T01:36:38.652Z,13.7
2016-08-05T01:36:48.654Z,13.8
2016-08-05T01:36:58.653Z,13.8
2016-08-05T01:37:08.653Z,13.8
2016-08-05T01:37:18.655Z,13.8
2016-08-05T01:37:28.664Z,13.8
2016-08-05T01:37:38.654Z,13.8
2016-08-05T01:37:48.660Z,13.8
2016-08-05T01:37:58.655Z,13.8
2016-08-05T01:38:08.656Z,13.8
2016-08-05T01:38:18.658Z,13.8
2016-08-05T01:38:28.657Z,13.8
2016-08-05T01:38:38.655Z,13.8
2016-08-05T01:38:48.656Z,13.8
2016-08-05T01:38:58.659Z,13.8
2016-08-05T01:39:08.659Z,13.8
2016-08-05T01:39:18.657Z,13.8
2016-08-05T01:39:28.656Z,13.7
2016-08-05T01:39:38.657Z,13.8
2016-08-05T01:39:48.657Z,13.8
2016-08-05T01:39:58.658Z,13.8
2016-08-05T01:40:08.661Z,13.8
2016-08-05T01:40:18.659Z,13.9
2016-08-05T01:40:38.658Z,13.8
2016-08-05T01:40:48.657Z,13.8
2016-08-05T01:40:58.657Z,13.7
2016-08-05T01:41:08.658Z,13.8
2016-08-05T01:41:18.659Z,13.8
2016-08-05T01:41:28.661Z,13.7
2016-08-05T01:41:38.659Z,13.8
2016-08-05T01:41:48.665Z,13.7
2016-08-05T01:41:58.673Z,13.7
2016-08-05T01:42:08.666Z,13.8
2016-08-05T01:42:18.665Z,13.7
2016-08-05T01:42:28.662Z,13.8
2016-08-05T01:42:38.665Z,13.7
2016-08-05T01:42:48.666Z,13.7
2016-08-05T01:42:58.663Z,13.7
2016-08-05T01:43:08.666Z,13.8
2016-08-05T01:43:18.664Z,13.7
2016-08-05T01:43:28.664Z,13.7
2016-08-05T01:43:38.667Z,13.7
2016-08-05T01:43:48.664Z,13.8
2016-08-05T01:43:58.664Z,13.7
2016-08-05T01:44:08.669Z,13.7
2016-08-05T01:44:18.666Z,13.8
2016-08-05T01:44:28.665Z,13.7
2016-08-05T01:44:38.670Z,13.8
2016-08-05T01:44:48.665Z,13.7
2016-08-05T01:44:58.665Z,13.8
2016-08-05T01:45:08.668Z,13.7
2016-08-05T01:45:18.664Z,13.7
2016-08-05T01:45:28.665Z,13.7
2016-08-05T01:45:38.670Z,13.7
2016-08-05T01:45:48.668Z,13.7
2016-08-05T01:45:58.666Z,13.8
2016-08-05T01:46:08.669Z,13.7
2016-08-05T01:46:18.667Z,13.7
2016-08-05T01:46:28.663Z,13.7
2016-08-05T01:46:38.665Z,13.7
2016-08-05T01:46:48.663Z,13.7
2016-08-05T01:46:58.663Z,13.7
2016-08-05T01:47:08.666Z,13.7
2016-08-05T01:47:18.663Z,13.6
2016-08-05T01:47:28.664Z,13.6
2016-08-05T01:47:38.673Z,13.6
2016-08-05T01:47:48.667Z,13.6
2016-08-05T01:47:58.674Z,13.6
2016-08-05T01:48:08.673Z,13.6
2016-08-05T01:48:18.668Z,13.6
2016-08-05T01:48:28.672Z,13.6
2016-08-05T01:48:38.672Z,13.7
2016-08-05T01:48:48.669Z,13.7
2016-08-05T01:48:58.673Z,13.7
2016-08-05T01:49:08.666Z,13.7
2016-08-05T01:49:18.668Z,13.7
2016-08-05T01:49:28.665Z,13.7
2016-08-05T01:49:38.668Z,13.7
2016-08-05T01:49:48.667Z,13.7
2016-08-05T01:49:58.666Z,13.6
2016-08-05T01:50:08.668Z,13.6
2016-08-05T01:50:18.670Z,13.7
2016-08-05T01:50:28.679Z,13.7
2016-08-05T01:50:38.672Z,13.7
2016-08-05T01:50:48.672Z,13.7
2016-08-05T01:50:58.669Z,13.7
2016-08-05T01:51:08.671Z,13.7
2016-08-05T01:51:18.673Z,13.7
2016-08-05T01:51:28.669Z,13.7
2016-08-05T01:51:38.669Z,13.7
2016-08-05T01:51:48.670Z,13.7
2016-08-05T01:51:58.672Z,13.7
2016-08-05T01:52:08.676Z,13.6
2016-08-05T01:52:18.676Z,13.7
2016-08-05T01:52:28.679Z,13.7
2016-08-05T01:52:38.675Z,13.8
2016-08-05T01:52:48.679Z,13.7
2016-08-05T01:52:58.683Z,13.7
2016-08-05T01:53:08.674Z,13.7
2016-08-05T01:53:18.679Z,13.7
2016-08-05T01:53:28.683Z,13.7
2016-08-05T01:53:38.669Z,13.6
2016-08-05T01:53:48.671Z,13.7
2016-08-05T01:53:58.684Z,13.7
2016-08-05T01:54:08.672Z,13.7
2016-08-05T01:54:18.671Z,13.7
2016-08-05T01:54:28.683Z,13.6
2016-08-05T01:54:38.673Z,13.8
2016-08-05T01:54:48.689Z,13.7
2016-08-05T01:54:58.679Z,13.7
2016-08-05T01:55:08.680Z,13.7
2016-08-05T01:55:18.681Z,13.7
2016-08-05T01:55:38.677Z,13.7
2016-08-05T01:55:48.686Z,13.7
2016-08-05T01:55:58.683Z,13.6
2016-08-05T01:56:08.679Z,13.7
2016-08-05T01:56:18.682Z,13.7
2016-08-05T01:56:28.673Z,13.6
2016-08-05T01:56:38.677Z,13.7
2016-08-05T01:56:48.676Z,13.7
2016-08-05T01:56:58.677Z,13.7
2016-08-05T01:57:08.675Z,13.6
2016-08-05T01:57:18.674Z,13.6
2016-08-05T01:57:28.674Z,13.7
2016-08-05T01:57:38.683Z,13.7
2016-08-05T01:57:48.683Z,13.6
2016-08-05T01:57:58.673Z,13.7
2016-08-05T01:58:08.676Z,13.6
2016-08-05T01:58:18.683Z,13.6
2016-08-05T01:58:28.675Z,13.7
2016-08-05T01:58:38.673Z,13.6
2016-08-05T01:58:48.676Z,13.6
2016-08-05T01:58:58.676Z,13.7
2016-08-05T01:59:08.679Z,13.6
2016-08-05T01:59:18.680Z,13.6
2016-08-05T01:59:28.676Z,13.6
2016-08-05T01:59:38.726Z,13.6
2016-08-05T01:59:48.675Z,13.6
2016-08-05T01:59:58.676Z,13.6
2016-08-05T02:00:08.677Z,13.6
2016-08-05T02:00:18.676Z,13.6
2016-08-05T02:00:28.675Z,13.6
2016-08-05T02:00:38.677Z,13.6
2016-08-05T02:00:48.675Z,13.6
2016-08-05T02:00:58.678Z,13.6
2016-08-05T02:01:08.675Z,13.6
2016-08-05T02:01:18.679Z,13.6
2016-08-05T02:01:28.678Z,13.6
2016-08-05T02:01:38.676Z,13.7
2016-08-05T02:01:48.680Z,13.5
2016-08-05T02:01:58.679Z,13.6
2016-08-05T02:02:08.677Z,13.7
2016-08-05T02:02:18.679Z,13.7
2016-08-05T02:02:28.679Z,13.7
2016-08-05T02:02:38.678Z,13.6
2016-08-05T02:02:48.678Z,13.6
2016-08-05T02:02:58.679Z,13.7
2016-08-05T02:03:08.680Z,13.6
2016-08-05T02:03:18.680Z,13.6
2016-08-05T02:03:28.679Z,13.6
2016-08-05T02:03:38.680Z,13.7
2016-08-05T02:03:48.679Z,13.7
2016-08-05T02:03:58.682Z,13.6
2016-08-05T02:04:08.685Z,13.7
2016-08-05T02:04:18.678Z,13.6
2016-08-05T02:04:28.679Z,13.7
2016-08-05T02:04:38.680Z,13.6
2016-08-05T02:04:48.680Z,13.6
2016-08-05T02:04:58.681Z,13.7
2016-08-05T02:05:08.679Z,13.6
2016-08-05T02:05:18.687Z,13.6
2016-08-05T02:05:28.681Z,13.6
2016-08-05T02:05:38.733Z,13.6
2016-08-05T02:05:48.682Z,13.6
2016-08-05T02:05:58.679Z,13.7
2016-08-05T02:06:08.682Z,13.5
2016-08-05T02:06:18.682Z,13.6
2016-08-05T02:06:28.680Z,13.6
2016-08-05T02:06:38.682Z,13.6
2016-08-05T02:06:48.683Z,13.5
2016-08-05T02:06:58.682Z,13.6
2016-08-05T02:07:08.685Z,13.5
2016-08-05T02:07:18.682Z,13.6
2016-08-05T02:07:28.681Z,13.6
2016-08-05T02:07:38.684Z,13.6
2016-08-05T02:07:48.687Z,13.6
2016-08-05T02:07:58.683Z,13.6
2016-08-05T02:08:08.681Z,13.6
2016-08-05T02:08:18.681Z,13.5
2016-08-05T02:08:28.684Z,13.6
2016-08-05T02:08:38.733Z,13.6
2016-08-05T02:08:48.682Z,13.6
2016-08-05T02:08:58.682Z,13.6
2016-08-05T02:09:08.690Z,13.5
2016-08-05T02:09:18.686Z,13.5
2016-08-05T02:09:28.684Z,13.6
2016-08-05T02:09:38.735Z,13.5
2016-08-05T02:09:48.684Z,13.6
2016-08-05T02:09:58.687Z,13.5
2016-08-05T02:10:08.686Z,13.5
2016-08-05T02:10:18.686Z,13.4
2016-08-05T02:10:38.688Z,13.5
2016-08-05T02:10:48.685Z,13.5
2016-08-05T02:10:58.685Z,13.5
2016-08-05T02:11:08.686Z,13.5
2016-08-05T02:11:18.684Z,13.5
2016-08-05T02:11:28.686Z,13.5
2016-08-05T02:11:38.688Z,13.5
2016-08-05T02:11:48.684Z,13.5
2016-08-05T02:11:58.687Z,13.4
2016-08-05T02:12:08.686Z,13.5
2016-08-05T02:12:18.686Z,13.5
2016-08-05T02:12:28.689Z,13.5
2016-08-05T02:12:38.687Z,13.5
2016-08-05T02:12:48.686Z,13.5
2016-08-05T02:12:58.688Z,13.5
2016-08-05T02:13:08.688Z,13.5
2016-08-05T02:13:18.689Z,13.5
2016-08-05T02:13:28.688Z,13.5
2016-08-05T02:13:38.693Z,13.5
2016-08-05T02:13:48.689Z,13.5
2016-08-05T02:13:58.689Z,13.5
2016-08-05T02:14:08.687Z,13.5
2016-08-05T02:14:18.693Z,13.5
2016-08-05T02:14:28.690Z,13.5
2016-08-05T02:14:38.688Z,13.5
2016-08-05T02:14:48.689Z,13.5
2016-08-05T02:14:58.689Z,13.5
2016-08-05T02:15:08.688Z,13.5
2016-08-05T02:15:18.689Z,13.5
2016-08-05T02:15:28.689Z,13.5
2016-08-05T02:15:38.690Z,13.5
2016-08-05T02:15:48.689Z,13.4
2016-08-05T02:15:58.690Z,13.4